Time;durP1;ratioP1;P1;durP2;ratioP2;P2;SDS_P1;SDS_P2;PMS_P1;PMS_P2;Temp;Humidity;BMP_temperature;BMP_pressure;BME280_temperature;BME280_humidity;BME280_pressure;Samples;Min_cycle;Max_cycle;Signal;HPM_P1;HPM_P2
2021/12/07 00:01:54;;;;;;;33.10;18.80;;;;;;;-2.65;79.30;100322.54;84790;1326;22900;-76
2021/12/07 00:04:04;;;;;;;31.70;18.40;;;;;;;-2.63;79.32;100323.73;84004;1327;1003427;-76
2021/12/07 00:06:14;;;;;;;34.90;19.10;;;;;;;-2.62;79.27;100327.17;84796;1326;22598;-76
2021/12/07 00:08:25;;;;;;;37.00;19.60;;;;;;;-2.66;79.16;100325.57;84792;1327;22653;-75
2021/12/07 00:10:35;;;;;;;35.60;18.90;;;;;;;-2.69;79.28;100324.35;84790;1326;25445;-76
2021/12/07 00:12:44;;;;;;;35.80;20.70;;;;;;;-2.69;79.45;100327.08;84797;1326;23907;-75
2021/12/07 00:14:56;;;;;;;33.80;18.80;;;;;;;-2.71;79.47;100332.67;84776;1321;22668;-77
2021/12/07 00:17:03;;;;;;;36.80;20.50;;;;;;;-2.72;79.33;100333.16;84075;1323;1003688;-67
2021/12/07 00:19:10;;;;;;;40.90;18.40;;;;;;;-2.73;79.49;100337.09;84790;1324;23083;-68
2021/12/07 00:21:18;;;;;;;35.60;20.10;;;;;;;-2.73;79.46;100340.84;84830;1318;22593;-68
2021/12/07 00:23:26;;;;;;;32.40;18.40;;;;;;;-2.71;79.35;100341.55;84782;1318;22717;-68
2021/12/07 00:25:34;;;;;;;33.60;18.90;;;;;;;-2.71;79.44;100341.73;84789;1321;22602;-68
2021/12/07 00:27:45;;;;;;;36.40;19.00;;;;;;;-2.69;79.39;100345.17;84758;1326;25278;-75
2021/12/07 00:29:55;;;;;;;30.90;17.60;;;;;;;-2.68;79.53;100347.58;84775;1325;22700;-75
2021/12/07 00:32:19;;;;;;;37.80;17.90;;;;;;;-2.68;79.50;100344.33;84808;1326;22692;-67
2021/12/07 00:34:44;;;;;;;34.30;19.60;;;;;;;-2.69;79.56;100345.17;84778;1327;22813;-66
2021/12/07 00:36:54;;;;;;;34.50;19.20;;;;;;;-2.70;79.68;100348.23;84749;1326;22710;-67
2021/12/07 00:39:04;;;;;;;37.80;19.80;;;;;;;-2.72;79.63;100350.92;84785;1327;26669;-67
2021/12/07 00:41:09;;;;;;;;;;;;;;;-2.73;79.58;100354.84;84747;1327;22628;-67
2021/12/07 00:43:16;;;;;;;37.30;20.00;;;;;;;-2.77;79.71;100353.73;84789;1327;23012;-67
2021/12/07 00:45:25;;;;;;;37.70;18.50;;;;;;;-2.78;79.60;100358.34;84773;1327;22581;-67
2021/12/07 00:47:32;;;;;;;40.80;19.80;;;;;;;-2.77;79.65;100360.58;84742;1327;22620;-76
2021/12/07 00:49:42;;;;;;;33.40;18.80;;;;;;;-2.77;79.53;100362.79;84806;1318;22594;-76
2021/12/07 00:51:51;;;;;;;31.80;17.60;;;;;;;-2.75;79.62;100366.60;84713;1325;22807;-67
2021/12/07 00:54:01;;;;;;;31.00;17.30;;;;;;;-2.74;79.63;100365.42;84782;1326;22640;-67
2021/12/07 00:56:07;;;;;;;;;;;;;;;-2.71;79.67;100370.75;84791;1325;22557;-76
2021/12/07 00:58:20;;;;;;;32.10;19.10;;;;;;;-2.68;79.87;100372.16;84787;1326;22601;-77
2021/12/07 01:00:28;;;;;;;32.30;17.50;;;;;;;-2.66;79.67;100374.27;84743;1327;22742;-77
2021/12/07 01:02:34;;;;;;;33.80;19.50;;;;;;;-2.65;79.55;100374.27;84848;1325;22578;-68
2021/12/07 01:04:50;;;;;;;34.20;19.70;;;;;;;-2.66;79.48;100375.27;84857;1325;27070;-67
2021/12/07 01:07:06;;;;;;;41.10;20.70;;;;;;;-2.67;79.52;100378.67;84826;1322;22716;-67
2021/12/07 01:09:20;;;;;;;33.50;18.00;;;;;;;-2.67;79.64;100382.75;84836;1324;22584;-68
2021/12/07 01:26:03;;;;;;;29.90;16.80;;;;;;;-2.65;79.61;100367.60;84837;1322;22594;-76
2021/12/07 01:28:21;;;;;;;31.00;17.00;;;;;;;-2.64;79.55;100366.09;84824;1320;22533;-76
2021/12/07 01:30:38;;;;;;;34.50;18.50;;;;;;;-2.66;79.48;100370.31;84830;1324;23965;-76
2021/12/07 01:33:05;;;;;;;35.00;19.80;;;;;;;-2.68;79.58;100371.30;84848;1325;22882;-77
2021/12/07 01:37:52;;;;;;;30.40;16.80;;;;;;;-2.74;79.37;100378.05;84085;1326;1004009;-66
2021/12/07 01:40:23;;;;;;;31.00;16.90;;;;;;;-2.76;79.33;100373.22;84833;1324;22587;-68
2021/12/07 01:43:05;;;;;;;;;;;;;;;-2.78;79.42;100377.64;84850;1325;23866;-76
2021/12/07 01:45:48;;;;;;;28.30;17.80;;;;;;;-2.80;79.59;100376.06;84820;1324;22604;-75
2021/12/07 01:48:01;;;;;;;37.50;17.40;;;;;;;-2.81;79.43;100375.54;84150;1324;1016580;-68
2021/12/07 01:53:08;;;;;;;33.00;17.70;;;;;;;-2.76;79.17;100375.10;84477;1335;22597;-75
2021/12/07 02:00:32;;;;;;;29.60;17.20;;;;;;;-2.68;79.27;100360.22;81786;1371;545663;-67
2021/12/07 02:02:39;;;;;;;31.60;17.30;;;;;;;-2.68;79.18;100359.70;84170;1339;22778;-67
2021/12/07 02:04:46;;;;;;;32.10;17.90;;;;;;;-2.68;79.03;100359.87;84112;1339;22632;-67
2021/12/07 02:06:53;;;;;;;30.80;18.30;;;;;;;-2.73;78.82;100357.23;84031;1339;22761;-67
2021/12/07 02:09:00;;;;;;;31.60;19.50;;;;;;;-2.74;79.12;100361.48;84051;1339;22611;-67
2021/12/07 02:11:10;;;;;;;32.00;18.20;;;;;;;-2.75;78.94;100360.09;84049;1342;22626;-74
2021/12/07 02:14:01;;;;;;;37.20;17.50;;;;;;;-2.78;78.88;100356.63;84005;1342;22689;-68
2021/12/07 02:15:51;;;;;;;33.30;18.10;;;;;;;-2.80;78.85;100364.46;83996;1337;22939;-75
2021/12/07 02:17:57;;;;;;;35.40;17.90;;;;;;;-2.79;78.90;100369.42;84305;1337;25301;-75
2021/12/07 02:20:06;;;;;;;28.00;16.60;;;;;;;-2.76;78.86;100375.77;84179;1339;23915;-75
2021/12/07 02:22:12;;;;;;;28.70;16.90;;;;;;;-2.74;79.01;100380.25;84247;1339;22846;-67
2021/12/07 02:24:19;;;;;;;32.30;18.20;;;;;;;-2.71;78.91;100381.02;84403;1334;22593;-69
2021/12/07 02:26:26;;;;;;;32.00;17.40;;;;;;;-2.69;79.05;100382.73;84351;1336;24152;-75
2021/12/07 02:28:39;;;;;;;37.70;19.70;;;;;;;-2.68;78.96;100385.31;84427;1334;25691;-75
2021/12/07 02:30:46;;;;;;;32.50;18.70;;;;;;;-2.68;79.05;100387.02;84410;1337;22624;-75
2021/12/07 02:32:55;;;;;;;34.10;18.80;;;;;;;-2.69;79.01;100385.47;84433;1334;22603;-75
2021/12/07 02:35:01;;;;;;;32.00;18.10;;;;;;;-2.70;78.89;100384.27;84418;1331;22613;-75
2021/12/07 02:37:08;;;;;;;34.60;18.40;;;;;;;-2.72;78.86;100379.10;84437;1336;22622;-75
2021/12/07 02:39:15;;;;;;;37.80;18.70;;;;;;;-2.74;78.92;100373.44;84350;1335;24232;-74
2021/12/07 02:41:24;;;;;;;35.70;17.90;;;;;;;-2.74;78.87;100372.07;84323;1332;25973;-74
2021/12/07 02:43:31;;;;;;;35.80;17.80;;;;;;;-2.74;78.97;100367.12;84454;1336;23989;-75
2021/12/07 02:45:38;;;;;;;34.90;18.60;;;;;;;-2.73;78.98;100365.25;84430;1335;22748;-75
2021/12/07 02:47:48;;;;;;;37.90;20.00;;;;;;;-2.72;79.08;100365.45;84766;1326;22676;-66
2021/12/07 02:49:55;;;;;;;33.20;19.00;;;;;;;-2.71;79.11;100367.16;84772;1325;22725;-66
2021/12/07 02:52:03;;;;;;;34.70;18.20;;;;;;;-2.71;79.14;100367.33;84779;1329;24850;-74
2021/12/07 02:54:13;;;;;;;35.60;18.50;;;;;;;-2.71;79.10;100370.75;84755;1328;22610;-75
2021/12/07 02:56:19;;;;;;;38.10;18.10;;;;;;;-2.72;79.15;100371.74;84057;1325;1003671;-68
2021/12/07 02:58:26;;;;;;;36.70;18.50;;;;;;;-2.69;79.15;100373.86;84766;1325;25468;-66
2021/12/07 03:00:40;;;;;;;31.70;18.40;;;;;;;-2.67;79.16;100373.70;84750;1327;22587;-66
2021/12/07 03:02:54;;;;;;;33.40;17.40;;;;;;;-2.68;79.03;100372.16;84775;1326;22607;-67
2021/12/07 03:05:06;;;;;;;34.90;19.00;;;;;;;-2.72;78.76;100372.79;84766;1326;22590;-66
2021/12/07 03:07:20;;;;;;;37.70;19.70;;;;;;;-2.76;78.83;100373.90;84807;1326;23845;-75
2021/12/07 03:26:25;;;;;;;34.00;17.60;;;;;;;-2.81;78.90;100368.20;84005;1329;1003898;-66
2021/12/07 03:28:36;;;;;;;31.90;17.50;;;;;;;-2.82;78.96;100366.80;83976;1327;1002682;-66
2021/12/07 03:30:43;;;;;;;31.90;16.90;;;;;;;-2.82;79.05;100363.05;84007;1327;1003063;-68
2021/12/07 03:32:51;;;;;;;30.80;16.00;;;;;;;-2.83;78.95;100366.13;84681;1327;22613;-69
2021/12/07 03:34:57;;;;;;;29.70;16.40;;;;;;;-2.82;78.85;100368.70;84659;1329;22587;-68
2021/12/07 03:37:05;;;;;;;27.90;15.50;;;;;;;-2.81;78.74;100371.77;84711;1329;22812;-75
2021/12/07 03:39:15;;;;;;;28.60;15.20;;;;;;;-2.81;78.79;100372.96;84685;1327;22728;-75
2021/12/07 03:41:22;;;;;;;33.10;16.40;;;;;;;-2.81;78.95;100371.27;84730;1328;22661;-74
2021/12/07 03:43:32;;;;;;;33.10;18.10;;;;;;;-2.79;79.03;100373.70;84686;1320;22597;-74
2021/12/07 03:45:40;;;;;;;36.50;18.30;;;;;;;-2.80;79.02;100374.38;84709;1327;24218;-74
2021/12/07 03:47:49;;;;;;;33.90;18.50;;;;;;;-2.80;79.10;100373.68;84625;1329;22596;-66
2021/12/07 03:49:59;;;;;;;34.10;18.40;;;;;;;-2.81;79.20;100370.76;84692;1326;22609;-66
2021/12/07 03:52:10;;;;;;;36.80;19.70;;;;;;;-2.84;79.07;100370.89;84683;1327;22591;-67
2021/12/07 03:54:16;;;;;;;39.60;19.30;;;;;;;-2.86;79.10;100367.27;84717;1329;22791;-67
2021/12/07 03:56:23;;;;;;;37.20;18.20;;;;;;;-2.88;79.03;100363.48;84710;1327;22769;-72
2021/12/07 03:58:30;;;;;;;42.60;19.40;;;;;;;-2.88;79.09;100361.59;84579;1324;22582;-69
2021/12/07 04:00:41;;;;;;;35.40;17.80;;;;;;;-2.90;79.01;100362.77;84623;1328;22626;-69
2021/12/07 04:02:50;;;;;;;30.40;17.80;;;;;;;-2.90;78.93;100366.00;84627;1329;24298;-68
2021/12/07 04:05:01;;;;;;;39.10;18.10;;;;;;;-2.91;79.02;100369.73;84610;1329;22691;-66
2021/12/07 04:07:11;;;;;;;34.20;16.70;;;;;;;-2.89;79.14;100377.64;84643;1329;24131;-74
2021/12/07 04:09:20;;;;;;;35.20;18.80;;;;;;;-2.88;79.02;100377.64;84651;1329;22590;-75
2021/12/07 04:11:30;;;;;;;39.90;17.80;;;;;;;-2.89;78.92;100382.07;84631;1328;22583;-74
2021/12/07 04:13:44;;;;;;;34.30;17.10;;;;;;;-2.90;79.08;100384.77;84638;1329;22624;-75
2021/12/07 04:15:50;;;;;;;30.80;15.80;;;;;;;-2.91;79.14;100386.64;84644;1329;22591;-77
2021/12/07 04:18:00;;;;;;;33.60;18.60;;;;;;;-2.91;79.16;100391.25;84646;1329;25445;-74
2021/12/07 04:20:08;;;;;;;34.30;16.80;;;;;;;-2.91;79.18;100394.33;84642;1329;23904;-75
2021/12/07 04:22:15;;;;;;;35.10;18.10;;;;;;;-2.92;79.06;100398.73;84698;1329;24267;-76
2021/12/07 04:24:27;;;;;;;31.30;16.70;;;;;;;-2.92;79.01;100402.31;84647;1329;25452;-74
2021/12/07 04:26:34;;;;;;;28.40;16.90;;;;;;;-2.92;78.88;100401.64;84654;1328;24281;-75
2021/12/07 04:28:44;;;;;;;31.10;16.30;;;;;;;-2.89;78.97;100405.27;84573;1329;22624;-76
2021/12/07 04:30:55;;;;;;;27.50;14.80;;;;;;;-2.86;78.87;100406.02;84628;1328;22622;-75
2021/12/07 04:33:06;;;;;;;30.10;16.70;;;;;;;-2.85;78.97;100407.91;84633;1329;24443;-67
2021/12/07 04:35:13;;;;;;;32.50;16.20;;;;;;;-2.84;79.01;100410.65;83953;1331;1003814;-68
2021/12/07 04:37:23;;;;;;;26.20;14.90;;;;;;;-2.86;78.87;100413.36;84676;1329;22723;-76
2021/12/07 04:39:30;;;;;;;27.10;14.50;;;;;;;-2.87;78.88;100411.63;84643;1328;22727;-74
2021/12/07 04:41:37;;;;;;;34.10;14.60;;;;;;;-2.88;78.89;100415.38;84631;1325;22645;-74
2021/12/07 04:43:47;;;;;;;31.00;16.70;;;;;;;-2.92;78.72;100413.77;83925;1329;1003766;-75
2021/12/07 04:46:03;;;;;;;30.20;15.80;;;;;;;-2.95;78.88;100412.36;83972;1329;1003378;-73
2021/12/07 04:48:33;;;;;;;35.20;16.00;;;;;;;-2.95;78.83;100411.67;84641;1331;24372;-67
2021/12/07 04:57:36;;;;;;;;;;;;;;;-2.94;78.80;100410.15;84654;1331;22670;-67
2021/12/07 04:58:03;;;;;;;31.90;15.70;;;;;;;-2.89;78.67;100396.59;84656;1327;22849;-75
2021/12/07 05:00:15;;;;;;;36.30;16.40;;;;;;;-2.90;78.65;100394.70;84680;1327;22798;-75
2021/12/07 05:02:22;;;;;;;36.40;18.90;;;;;;;-2.92;78.55;100395.85;84700;1326;25446;-67
2021/12/07 05:04:32;;;;;;;33.30;17.50;;;;;;;-2.92;78.65;100399.25;84686;1324;22813;-66
2021/12/07 05:06:46;;;;;;;32.00;15.90;;;;;;;-2.94;78.53;100401.29;84676;1327;22606;-75
2021/12/07 05:08:58;;;;;;;32.70;16.90;;;;;;;-2.94;78.64;100403.66;84666;1328;22587;-75
2021/12/07 05:13:51;;;;;;;31.80;16.50;;;;;;;-2.96;78.82;100415.05;84441;1334;22831;-67
2021/12/07 05:16:12;;;;;;;31.80;16.50;;;;;;;-2.97;78.65;100418.29;84482;1333;22796;-67
2021/12/07 05:18:36;;;;;;;;;;;;;;;-3.02;78.71;100423.48;84450;1333;24254;-69
2021/12/07 05:26:05;;;;;;;28.20;16.40;;;;;;;-3.03;78.55;100427.56;84587;1328;22718;-67
2021/12/07 05:37:53;;;;;;;33.90;16.70;;;;;;;-2.95;78.66;100432.66;84681;1329;24353;-76
2021/12/07 05:40:00;;;;;;;32.00;16.40;;;;;;;-2.94;78.80;100433.36;83965;1328;1003452;-75
2021/12/07 05:42:07;;;;;;;38.70;17.90;;;;;;;-2.93;78.85;100438.50;84690;1324;22705;-67
2021/12/07 05:44:14;;;;;;;37.60;18.00;;;;;;;-2.94;78.62;100440.86;84666;1327;25293;-67
2021/12/07 05:46:25;;;;;;;39.20;18.20;;;;;;;-2.99;78.52;100444.37;84702;1328;22605;-76
2021/12/07 05:48:38;;;;;;;39.80;17.70;;;;;;;-2.98;78.56;100444.04;84681;1324;23062;-76
2021/12/07 05:50:45;;;;;;;34.60;18.40;;;;;;;-2.97;78.67;100443.37;84689;1326;22643;-76
2021/12/07 05:52:55;;;;;;;32.00;17.20;;;;;;;-2.92;78.71;100440.39;84691;1329;22994;-67
2021/12/07 05:55:01;;;;;;;34.80;17.90;;;;;;;-2.88;78.82;100436.71;84704;1329;22658;-67
2021/12/07 05:57:11;;;;;;;35.00;19.90;;;;;;;-2.85;78.52;100436.42;84739;1330;22608;-76
2021/12/07 05:59:18;;;;;;;36.80;17.40;;;;;;;-2.86;78.39;100435.20;84722;1327;23043;-78
2021/12/07 06:01:28;;;;;;;39.70;19.40;;;;;;;-2.86;78.51;100435.54;84776;1327;24258;-77
2021/12/07 06:03:35;;;;;;;42.50;20.60;;;;;;;-2.84;78.65;100436.10;84661;1326;25320;-68
2021/12/07 06:05:46;;;;;;;39.00;19.10;;;;;;;-2.85;78.52;100435.06;83983;1329;1003089;-71
2021/12/07 06:07:54;;;;;;;39.30;19.40;;;;;;;-2.88;78.52;100431.76;84584;1332;22871;-66
2021/12/07 06:10:02;;;;;;;38.10;19.20;;;;;;;-2.91;78.52;100433.41;84718;1328;25456;-65
2021/12/07 06:12:12;;;;;;;40.90;19.90;;;;;;;-2.93;78.61;100434.23;84699;1328;22595;-68
2021/12/07 06:14:29;;;;;;;43.40;21.90;;;;;;;-2.91;78.72;100433.74;84690;1326;24272;-66
2021/12/07 06:16:36;;;;;;;37.70;20.20;;;;;;;-2.88;78.78;100437.39;84676;1324;23801;-75
2021/12/07 06:18:43;;;;;;;40.80;19.10;;;;;;;-2.85;78.57;100438.64;84731;1328;22599;-76
2021/12/07 06:20:50;;;;;;;33.80;18.90;;;;;;;-2.82;78.58;100442.95;84741;1329;22683;-77
2021/12/07 06:22:57;;;;;;;34.20;18.30;;;;;;;-2.80;78.58;100444.02;84687;1328;22598;-66
2021/12/07 06:25:04;;;;;;;38.30;18.80;;;;;;;-2.79;78.57;100447.45;84683;1328;22607;-69
2021/12/07 06:27:13;;;;;;;39.30;18.40;;;;;;;-2.81;78.49;100447.40;84695;1327;22816;-68
2021/12/07 06:29:19;;;;;;;39.50;19.20;;;;;;;-2.80;78.52;100444.86;84688;1327;22780;-67
2021/12/07 06:31:27;;;;;;;40.70;19.50;;;;;;;-2.82;78.38;100441.93;84678;1329;22592;-74
2021/12/07 06:33:34;;;;;;;40.10;20.20;;;;;;;-2.86;78.57;100438.46;84675;1327;24265;-74
2021/12/07 06:35:41;;;;;;;112.00;51.10;;;;;;;-2.89;78.45;100439.41;84698;1328;22598;-75
2021/12/07 06:37:52;;;;;;;42.30;20.40;;;;;;;-2.92;78.50;100447.05;84698;1328;22697;-66
2021/12/07 06:39:59;;;;;;;44.70;20.70;;;;;;;-2.93;78.34;100448.91;83963;1327;1003169;-68
2021/12/07 06:42:06;;;;;;;43.50;19.30;;;;;;;-2.91;78.50;100453.20;84665;1329;22695;-75
2021/12/07 06:44:16;;;;;;;36.50;17.80;;;;;;;-2.88;78.53;100450.02;84663;1327;24369;-75
2021/12/07 06:46:24;;;;;;;;;;;;;;;-2.86;78.51;100451.43;84676;1329;25456;-76
2021/12/07 06:48:31;;;;;;;46.30;18.80;;;;;;;-2.87;78.36;100452.42;84662;1327;22636;-76
2021/12/07 06:50:40;;;;;;;45.80;21.10;;;;;;;-2.90;78.35;100453.58;84678;1328;22828;-77
2021/12/07 06:52:47;;;;;;;42.10;19.30;;;;;;;-2.88;78.58;100456.00;84714;1325;22844;-68
2021/12/07 06:54:58;;;;;;;47.80;21.20;;;;;;;-2.88;78.57;100457.54;84671;1328;22597;-75
2021/12/07 06:57:06;;;;;;;44.90;21.60;;;;;;;-2.90;78.46;100458.52;84690;1328;25326;-75
2021/12/07 06:59:13;;;;;;;46.80;21.60;;;;;;;-2.92;78.47;100462.06;84658;1327;22589;-75
2021/12/07 07:01:21;;;;;;;49.40;21.90;;;;;;;-2.90;78.56;100466.04;84686;1328;22595;-67
2021/12/07 07:03:27;;;;;;;43.30;19.80;;;;;;;-2.92;78.39;100462.07;84657;1325;22713;-67
2021/12/07 07:05:37;;;;;;;45.90;22.20;;;;;;;-2.93;78.29;100463.42;83965;1328;1003309;-67
2021/12/07 07:07:47;;;;;;;44.10;20.50;;;;;;;-2.92;78.32;100462.74;84708;1330;24213;-75
2021/12/07 07:09:54;;;;;;;39.30;19.20;;;;;;;-2.92;78.39;100463.10;84681;1329;24624;-75
2021/12/07 07:12:06;;;;;;;38.80;19.50;;;;;;;-2.90;78.37;100463.98;84667;1331;23912;-67
2021/12/07 07:14:19;;;;;;;43.30;20.20;;;;;;;-2.87;78.38;100465.91;84686;1328;22597;-67
2021/12/07 07:16:33;;;;;;;50.00;23.70;;;;;;;-2.88;78.12;100470.00;84702;1329;25443;-75
2021/12/07 07:18:46;;;;;;;44.00;22.80;;;;;;;-2.88;78.19;100469.14;84671;1330;22607;-74
2021/12/07 07:20:56;;;;;;;51.60;24.30;;;;;;;-2.88;78.28;100472.56;84607;1329;27237;-68
2021/12/07 07:23:09;;;;;;;40.90;21.80;;;;;;;-2.86;78.19;100471.40;84660;1326;22622;-74
2021/12/07 07:25:17;;;;;;;48.20;23.80;;;;;;;-2.88;78.16;100473.07;84678;1324;22747;-75
2021/12/07 07:27:27;;;;;;;45.80;22.80;;;;;;;-2.89;78.17;100473.57;84679;1328;22731;-75
2021/12/07 07:29:37;;;;;;;52.70;25.30;;;;;;;-2.90;78.30;100475.77;84705;1329;23845;-73
2021/12/07 07:31:47;;;;;;;54.00;23.80;;;;;;;-2.88;78.25;100478.35;84661;1327;25054;-74
2021/12/07 07:33:57;;;;;;;47.60;23.10;;;;;;;-2.90;77.98;100481.57;84679;1320;22667;-73
2021/12/07 07:36:04;;;;;;;45.20;23.20;;;;;;;-2.90;78.14;100485.34;84711;1328;22611;-67
2021/12/07 07:38:11;;;;;;;49.10;22.00;;;;;;;-2.88;78.06;100484.33;84705;1325;22949;-66
2021/12/07 07:40:21;;;;;;;51.60;22.90;;;;;;;-2.86;78.16;100486.05;84667;1327;24280;-67
2021/12/07 07:42:26;;;;;;;;;;;;;;;-2.81;78.23;100487.33;84733;1328;25294;-68
2021/12/07 07:44:32;;;;;;;49.40;23.70;;;;;;;-2.82;78.26;100489.03;84654;1329;22596;-68
2021/12/07 07:46:39;;;;;;;52.00;24.80;;;;;;;-2.81;78.28;100489.91;84696;1331;24420;-68
2021/12/07 07:48:49;;;;;;;47.00;22.10;;;;;;;-2.79;78.32;100496.79;84567;1329;23975;-68
2021/12/07 07:50:57;;;;;;;43.80;21.50;;;;;;;-2.79;78.07;100494.58;84701;1326;24058;-74
2021/12/07 07:53:04;;;;;;;47.50;22.90;;;;;;;-2.82;77.92;100497.41;83978;1329;1002935;-76
2021/12/07 07:55:11;;;;;;;53.00;24.10;;;;;;;-2.86;78.06;100500.27;84678;1328;26740;-76
2021/12/07 07:57:21;;;;;;;44.90;23.40;;;;;;;-2.85;78.06;100497.70;84001;1328;1003010;-77
2021/12/07 07:59:28;;;;;;;38.20;18.60;;;;;;;-2.86;77.79;100493.77;84668;1328;24248;-77
2021/12/07 08:01:38;;;;;;;42.20;20.80;;;;;;;-2.84;77.90;100491.75;84697;1327;22633;-76
2021/12/07 08:03:45;;;;;;;43.10;20.60;;;;;;;-2.79;77.98;100492.02;84685;1324;22745;-77
2021/12/07 08:05:54;;;;;;;38.70;21.90;;;;;;;-2.76;77.83;100494.95;84695;1329;22615;-76
2021/12/07 08:08:01;;;;;;;39.60;21.00;;;;;;;-2.75;77.79;100498.91;84639;1329;22662;-68
2021/12/07 08:10:10;;;;;;;31.60;18.90;;;;;;;-2.75;77.70;100498.22;84585;1329;23554;-77
2021/12/07 08:12:17;;;;;;;38.30;22.20;;;;;;;-2.78;77.57;100500.55;84717;1328;25271;-68
2021/12/07 08:14:24;;;;;;;42.20;21.10;;;;;;;-2.76;77.80;100499.72;84693;1326;23997;-68
2021/12/07 08:16:30;;;;;;;36.30;19.60;;;;;;;-2.75;77.80;100500.09;84728;1330;22745;-77
2021/12/07 08:18:40;;;;;;;40.20;21.10;;;;;;;-2.79;77.33;100502.75;84553;1329;22741;-77
2021/12/07 08:20:46;;;;;;;39.10;20.20;;;;;;;-2.82;77.29;100505.95;84707;1328;23024;-77
2021/12/07 08:23:04;;;;;;;37.00;19.40;;;;;;;-2.81;77.18;100508.17;84681;1329;22759;-68
2021/12/07 08:25:14;;;;;;;38.50;19.50;;;;;;;-2.79;77.16;100509.08;84675;1324;22590;-68
2021/12/07 08:27:24;;;;;;;32.40;18.00;;;;;;;-2.77;77.00;100516.61;84681;1329;22583;-69
2021/12/07 08:29:31;;;;;;;31.40;17.80;;;;;;;-2.76;76.89;100518.69;84666;1329;22923;-68
2021/12/07 08:31:43;;;;;;;32.50;18.60;;;;;;;-2.76;76.83;100525.52;84687;1327;25454;-76
2021/12/07 08:33:53;;;;;;;40.40;19.10;;;;;;;-2.75;76.79;100531.36;84680;1327;22752;-76
2021/12/07 08:36:01;;;;;;;39.10;19.50;;;;;;;-2.75;76.66;100528.10;84649;1329;22732;-74
2021/12/07 08:38:11;;;;;;;35.90;19.50;;;;;;;-2.73;76.95;100527.96;84578;1332;23089;-76
2021/12/07 08:40:23;;;;;;;31.80;17.00;;;;;;;-2.71;76.96;100529.02;84696;1327;22622;-78
2021/12/07 08:42:34;;;;;;;33.90;16.70;;;;;;;-2.71;76.91;100537.25;84721;1327;22728;-67
2021/12/07 08:44:43;;;;;;;36.90;18.20;;;;;;;-2.71;76.84;100539.80;84617;1324;22714;-66
2021/12/07 08:46:51;;;;;;;35.90;17.00;;;;;;;-2.71;76.81;100537.92;83970;1327;1003761;-66
2021/12/07 08:49:00;;;;;;;34.30;17.40;;;;;;;-2.69;76.86;100542.90;84688;1327;24244;-66
2021/12/07 08:51:08;;;;;;;33.50;18.50;;;;;;;-2.70;76.63;100542.21;84698;1329;25320;-74
2021/12/07 08:53:18;;;;;;;34.70;18.00;;;;;;;-2.66;76.83;100544.82;84603;1329;22837;-76
2021/12/07 09:00:25;;;;;;;31.30;16.30;;;;;;;-2.64;76.33;100550.16;84464;1333;22691;-67
2021/12/07 09:02:33;;;;;;;30.60;17.30;;;;;;;-2.64;76.16;100545.89;84613;1329;22836;-78
2021/12/07 09:04:39;;;;;;;28.50;15.70;;;;;;;-2.64;76.03;100544.69;84686;1328;22624;-78
2021/12/07 09:06:49;;;;;;;30.30;17.40;;;;;;;-2.66;76.13;100545.02;84704;1327;22730;-67
2021/12/07 09:08:58;;;;;;;32.60;18.60;;;;;;;-2.66;76.22;100544.48;84670;1329;22690;-66
2021/12/07 09:11:08;;;;;;;33.30;16.80;;;;;;;-2.68;76.03;100546.51;84665;1323;22596;-67
2021/12/07 09:13:14;;;;;;;39.80;20.10;;;;;;;-2.69;75.98;100548.53;84648;1328;24342;-66
2021/12/07 09:15:21;;;;;;;41.40;20.70;;;;;;;-2.69;76.12;100551.10;84662;1320;22838;-66
2021/12/07 09:17:28;;;;;;;36.90;19.30;;;;;;;-2.66;76.27;100550.65;84681;1330;24172;-66
2021/12/07 09:19:35;;;;;;;35.90;19.70;;;;;;;-2.62;76.27;100551.23;84559;1329;22616;-67
2021/12/07 09:21:42;;;;;;;35.60;21.10;;;;;;;-2.55;76.51;100556.64;84659;1328;26584;-66
2021/12/07 09:23:50;;;;;;;40.70;20.00;;;;;;;-2.49;76.48;100556.77;84529;1329;22689;-75
2021/12/07 09:25:59;;;;;;;32.10;17.70;;;;;;;-2.50;75.59;100562.88;84681;1327;22664;-75
2021/12/07 09:28:06;;;;;;;31.30;16.70;;;;;;;-2.52;75.67;100561.13;84568;1330;22647;-76
2021/12/07 09:30:15;;;;;;;27.20;15.40;;;;;;;-2.52;75.75;100557.36;84701;1328;24216;-76
2021/12/07 09:32:22;;;;;;;27.90;15.20;;;;;;;-2.50;75.60;100551.27;84704;1327;22628;-66
2021/12/07 09:34:29;;;;;;;32.90;18.10;;;;;;;-2.50;75.81;100549.23;84680;1327;25899;-78
2021/12/07 09:36:36;;;;;;;29.30;16.10;;;;;;;-2.49;75.65;100549.59;84674;1329;22738;-66
2021/12/07 09:38:42;;;;;;;25.30;13.80;;;;;;;-2.50;75.43;100550.94;84667;1327;23912;-67
2021/12/07 09:40:50;;;;;;;29.60;15.20;;;;;;;-2.52;75.33;100546.96;85725;1311;22590;-66
2021/12/07 09:43:00;;;;;;;25.70;13.90;;;;;;;-2.50;75.57;100548.70;84658;1329;22746;-73
2021/12/07 09:45:07;;;;;;;23.60;14.20;;;;;;;-2.50;75.47;100545.13;84682;1328;25506;-68
2021/12/07 09:47:14;;;;;;;30.10;17.30;;;;;;;-2.48;75.63;100543.96;83970;1327;1002558;-67
2021/12/07 09:49:21;;;;;;;25.70;15.70;;;;;;;-2.43;75.32;100539.94;84572;1332;22581;-67
2021/12/07 09:51:29;;;;;;;22.80;14.10;;;;;;;-2.38;75.51;100538.14;84633;1324;23953;-67
2021/12/07 09:53:36;;;;;;;23.80;14.90;;;;;;;-2.34;75.59;100534.45;84632;1329;22602;-67
2021/12/07 09:55:46;;;;;;;92.90;31.70;;;;;;;-2.29;75.51;100533.70;83861;1329;1003085;-69
2021/12/07 09:57:56;;;;;;;90.70;30.60;;;;;;;-2.27;75.13;100534.74;84628;1329;25496;-66
2021/12/07 10:00:04;;;;;;;112.20;36.00;;;;;;;-2.29;75.37;100532.67;83908;1327;1003648;-67
2021/12/07 10:02:11;;;;;;;78.60;27.90;;;;;;;-2.28;75.61;100533.70;84633;1326;22582;-75
2021/12/07 10:04:18;;;;;;;129.90;38.50;;;;;;;-2.26;75.72;100533.23;84619;1330;24052;-77
2021/12/07 10:06:28;;;;;;;69.90;26.70;;;;;;;-2.25;75.51;100527.45;84618;1329;23033;-68
2021/12/07 10:08:37;;;;;;;90.40;30.90;;;;;;;-2.25;75.61;100530.70;84561;1329;23938;-66
2021/12/07 10:10:46;;;;;;;86.30;31.80;;;;;;;-2.24;75.56;100530.18;84572;1331;22592;-67
2021/12/07 10:12:52;;;;;;;69.30;25.40;;;;;;;-2.23;75.57;100527.46;84551;1332;25306;-68
2021/12/07 10:14:59;;;;;;;43.20;21.10;;;;;;;-2.23;75.59;100528.31;84378;1330;307171;-67
2021/12/07 10:17:06;;;;;;;32.50;16.80;;;;;;;-2.21;75.31;100529.73;84619;1328;24320;-66
2021/12/07 10:19:15;;;;;;;27.90;14.60;;;;;;;-2.22;74.86;100532.95;84615;1328;22687;-76
2021/12/07 10:21:25;;;;;;;26.10;13.90;;;;;;;-2.23;74.90;100528.30;84563;1329;22555;-67
2021/12/07 10:23:34;;;;;;;25.10;14.30;;;;;;;-2.21;74.62;100529.70;84639;1329;22599;-67
2021/12/07 10:25:41;;;;;;;21.80;13.30;;;;;;;-2.21;74.85;100529.39;84684;1329;25282;-74
2021/12/07 10:27:48;;;;;;;25.20;14.80;;;;;;;-2.20;74.63;100529.58;84669;1332;22601;-75
2021/12/07 10:29:55;;;;;;;23.90;13.40;;;;;;;-2.19;74.36;100530.27;84524;1331;22610;-75
2021/12/07 10:32:04;;;;;;;23.30;13.40;;;;;;;-2.20;74.61;100527.69;84587;1332;22630;-75
2021/12/07 10:34:15;;;;;;;23.40;13.90;;;;;;;-2.20;74.49;100524.95;84598;1329;22592;-76
2021/12/07 10:36:23;;;;;;;27.80;15.20;;;;;;;-2.22;74.52;100522.70;84613;1329;22693;-76
2021/12/07 10:38:30;;;;;;;28.30;16.00;;;;;;;-2.19;74.97;100515.06;84606;1329;25588;-77
2021/12/07 10:40:37;;;;;;;31.90;17.50;;;;;;;-2.16;75.15;100514.43;84687;1329;22950;-75
2021/12/07 10:42:44;;;;;;;31.40;16.60;;;;;;;-2.12;75.30;100511.94;84580;1331;22764;-76
2021/12/07 10:44:54;;;;;;;31.90;16.50;;;;;;;-2.07;74.97;100518.16;83903;1329;1002942;-79
2021/12/07 10:47:00;;;;;;;30.30;15.30;;;;;;;-2.02;74.85;100518.39;84624;1320;22618;-68
2021/12/07 10:49:20;;;;;;;25.00;14.80;;;;;;;-1.97;74.97;100516.08;84569;1330;24809;-69
2021/12/07 10:51:26;;;;;;;30.20;15.90;;;;;;;-1.91;74.88;100511.38;84585;1331;22597;-69
2021/12/07 10:53:37;;;;;;;43.40;18.50;;;;;;;-1.87;74.95;100510.58;84551;1332;22596;-69
2021/12/07 10:55:44;;;;;;;38.20;18.90;;;;;;;-1.82;74.79;100510.50;84589;1334;22675;-68
2021/12/07 10:57:52;;;;;;;37.60;16.60;;;;;;;-1.80;74.70;100511.89;84562;1334;22695;-68
2021/12/07 11:00:05;;;;;;;37.70;18.40;;;;;;;-1.80;74.61;100514.96;84576;1329;22636;-68